Time;durP1;ratioP1;P1;durP2;ratioP2;P2;SDS_P1;SDS_P2;PMS_P1;PMS_P2;Temp;Humidity;BMP_temperature;BMP_pressure;BME280_temperature;BME280_humidity;BME280_pressure;Samples;Min_cycle;Max_cycle;Signal;HPM_P1;HPM_P2
2021/08/06 00:00:31;;;;;;;6.32;2.35;;;18.80;99.90;;;;;;5014698;28;20025;-74
2021/08/06 00:02:56;;;;;;;2.42;1.75;;;18.80;99.90;;;;;;5046624;28;20026;-74
2021/08/06 00:05:23;;;;;;;4.75;1.90;;;18.70;99.90;;;;;;5015249;28;20472;-75
2021/08/06 00:07:49;;;;;;;2.42;1.38;;;18.70;99.90;;;;;;5013724;28;20026;-77
2021/08/06 00:10:15;;;;;;;4.63;2.15;;;18.70;99.90;;;;;;5046633;28;20095;-75
2021/08/06 00:12:40;;;;;;;2.45;1.10;;;18.60;99.90;;;;;;5014591;28;20101;-75
2021/08/06 00:15:07;;;;;;;2.17;1.60;;;18.60;99.90;;;;;;5014510;28;20033;-79
2021/08/06 00:17:32;;;;;;;3.42;1.60;;;18.60;99.90;;;;;;5013829;28;20495;-77
2021/08/06 00:19:58;;;;;;;6.32;2.47;;;18.50;99.90;;;;;;5014691;28;20053;-77
2021/08/06 00:22:24;;;;;;;3.67;1.60;;;18.60;99.90;;;;;;5046590;28;20026;-77
2021/08/06 00:24:49;;;;;;;5.57;2.05;;;18.60;99.90;;;;;;5014909;28;20034;-77
2021/08/06 00:27:15;;;;;;;3.50;2.40;;;18.60;99.90;;;;;;5015059;28;20029;-77
2021/08/06 00:29:40;;;;;;;4.72;1.50;;;18.60;99.90;;;;;;5034562;28;20155;-77
2021/08/06 00:32:06;;;;;;;3.03;1.30;;;18.60;99.90;;;;;;5016227;28;20025;-74
2021/08/06 00:34:32;;;;;;;2.85;1.75;;;18.60;99.90;;;;;;5034560;28;20033;-77
2021/08/06 00:36:57;;;;;;;4.28;1.77;;;18.60;99.90;;;;;;5016498;28;20017;-75
2021/08/06 00:39:23;;;;;;;5.15;1.50;;;18.60;99.90;;;;;;5034693;28;20030;-79
2021/08/06 00:41:48;;;;;;;8.48;1.77;;;18.50;99.90;;;;;;5017420;28;20497;-79
2021/08/06 00:44:14;;;;;;;3.38;1.65;;;18.50;99.90;;;;;;5035410;28;20104;-79
2021/08/06 00:46:40;;;;;;;1.88;1.42;;;18.60;99.90;;;;;;5034040;28;20060;-76
2021/08/06 00:49:06;;;;;;;3.60;1.33;;;18.50;99.90;;;;;;5034265;28;20022;-76
2021/08/06 00:51:33;;;;;;;2.67;1.27;;;18.60;99.90;;;;;;5033581;28;20083;-76
2021/08/06 00:53:59;;;;;;;4.40;1.50;;;18.50;99.90;;;;;;5033581;28;20032;-75
2021/08/06 00:56:25;;;;;;;3.47;1.50;;;18.50;99.90;;;;;;5033649;28;20025;-76
2021/08/06 00:58:50;;;;;;;2.90;0.93;;;18.50;99.90;;;;;;5033951;28;20037;-76
2021/08/06 01:01:19;;;;;;;2.53;1.13;;;18.50;99.90;;;;;;5015925;28;20048;-77
2021/08/06 01:04:07;;;;;;;5.32;1.30;;;18.50;99.90;;;;;;5016032;28;20021;-77
2021/08/06 01:06:56;;;;;;;2.70;1.55;;;18.50;99.90;;;;;;5016296;28;20065;-77
2021/08/06 01:09:30;;;;;;;;;;;18.50;99.90;;;;;;5016885;28;20140;-75
2021/08/06 01:12:01;;;;;;;1.75;0.50;;;18.50;99.90;;;;;;5033614;28;19912;-79
2021/08/06 01:14:28;;;;;;;2.17;1.50;;;18.50;99.90;;;;;;5035069;28;20356;-76
2021/08/06 01:16:58;;;;;;;2.95;0.90;;;18.60;99.90;;;;;;5033694;28;20018;-77
2021/08/06 01:19:24;;;;;;;4.38;1.38;;;18.60;99.90;;;;;;5033421;28;20018;-77
2021/08/06 01:22:00;;;;;;;2.92;0.50;;;18.60;99.90;;;;;;5033559;28;20129;-77
2021/08/06 01:24:27;;;;;;;0.65;0.52;;;18.70;99.90;;;;;;5015831;28;20018;-77
2021/08/06 01:26:55;;;;;;;2.40;0.38;;;18.80;99.90;;;;;;5015612;28;20124;-75
2021/08/06 01:29:21;;;;;;;8.48;0.20;;;18.80;99.90;;;;;;5033064;28;20060;-74
2021/08/06 01:31:49;;;;;;;0.30;0.13;;;18.80;99.90;;;;;;5015844;28;20055;-75
2021/08/06 01:34:15;;;;;;;1.67;0.22;;;18.80;99.90;;;;;;5015404;28;20026;-76
2021/08/06 01:36:40;;;;;;;1.98;0.30;;;18.80;99.90;;;;;;5033194;28;20196;-76
2021/08/06 01:39:06;;;;;;;0.60;0.35;;;18.80;99.90;;;;;;5015397;28;20468;-76
2021/08/06 01:42:08;;;;;;;1.67;0.28;;;18.80;99.90;;;;;;5015240;28;20071;-76
2021/08/06 01:44:41;;;;;;;1.45;0.47;;;18.80;99.90;;;;;;5033842;28;20076;-79
2021/08/06 01:47:19;;;;;;;1.75;0.63;;;18.80;99.90;;;;;;5033301;28;20060;-77
2021/08/06 01:49:48;;;;;;;2.42;0.40;;;18.80;99.90;;;;;;5015362;28;20049;-75
2021/08/06 01:52:18;;;;;;;1.40;0.80;;;18.80;99.90;;;;;;5032850;28;20096;-77
2021/08/06 01:54:46;;;;;;;2.35;0.50;;;18.80;99.90;;;;;;5033283;28;20014;-76
2021/08/06 01:57:13;;;;;;;1.27;0.70;;;18.80;99.90;;;;;;5015207;28;20032;-76
2021/08/06 01:59:40;;;;;;;2.30;0.70;;;18.70;99.90;;;;;;5015182;28;20057;-76
2021/08/06 02:02:07;;;;;;;3.50;0.73;;;18.70;99.90;;;;;;5032853;28;20022;-76
2021/08/06 02:04:34;;;;;;;0.95;0.30;;;18.60;99.90;;;;;;5033166;28;20022;-76
2021/08/06 02:07:00;;;;;;;0.52;0.45;;;18.50;99.90;;;;;;5032963;28;20104;-76
2021/08/06 02:09:25;;;;;;;0.80;0.50;;;18.50;99.90;;;;;;5032852;28;20479;-77
2021/08/06 02:11:53;;;;;;;1.48;0.47;;;18.50;99.90;;;;;;5032870;28;20031;-76
2021/08/06 02:14:19;;;;;;;0.50;0.32;;;18.50;99.90;;;;;;5033070;28;20040;-74
2021/08/06 02:16:47;;;;;;;0.70;0.30;;;18.50;99.90;;;;;;5015160;28;20383;-75
2021/08/06 02:19:15;;;;;;;2.10;0.20;;;18.40;99.90;;;;;;5032866;28;20021;-76
2021/08/06 02:21:46;;;;;;;1.98;0.25;;;18.40;99.90;;;;;;5016031;28;20029;-76
2021/08/06 02:24:13;;;;;;;0.70;0.30;;;18.40;99.90;;;;;;5019105;28;20080;-76
2021/08/06 02:26:42;;;;;;;0.65;0.38;;;18.40;99.90;;;;;;5037640;28;20052;-75
2021/08/06 02:29:11;;;;;;;1.45;0.28;;;18.50;99.90;;;;;;5036221;28;20040;-76
2021/08/06 02:31:39;;;;;;;2.35;0.20;;;18.40;99.90;;;;;;5018641;28;20029;-77
2021/08/06 02:34:05;;;;;;;3.13;0.30;;;18.30;99.90;;;;;;5018580;28;20075;-75
2021/08/06 02:36:31;;;;;;;3.10;0.17;;;18.30;99.90;;;;;;5018466;28;20549;-76
2021/08/06 02:38:59;;;;;;;0.85;0.20;;;18.30;99.90;;;;;;5037685;28;20025;-74
2021/08/06 02:41:29;;;;;;;0.32;0.10;;;18.30;99.90;;;;;;5036207;28;20014;-76
2021/08/06 02:43:55;;;;;;;0.70;0.17;;;18.30;99.90;;;;;;5036279;28;20029;-76
2021/08/06 02:46:21;;;;;;;1.23;0.38;;;18.30;99.90;;;;;;5036259;28;20040;-77
2021/08/06 02:48:47;;;;;;;0.40;0.10;;;18.30;99.90;;;;;;5036424;28;20029;-77
2021/08/06 02:51:12;;;;;;;1.83;0.10;;;18.30;99.90;;;;;;5018437;28;20025;-77
2021/08/06 02:53:38;;;;;;;1.70;0.40;;;18.40;99.90;;;;;;5018310;28;20025;-75
2021/08/06 02:56:04;;;;;;;0.73;0.10;;;18.50;99.90;;;;;;5036152;28;20021;-75
2021/08/06 02:58:29;;;;;;;1.48;0.15;;;18.30;99.90;;;;;;5018081;28;20356;-75
2021/08/06 03:00:55;;;;;;;1.38;0.40;;;18.40;99.90;;;;;;5035678;28;20419;-75
2021/08/06 03:03:20;;;;;;;1.95;0.32;;;18.40;99.90;;;;;;5036668;28;20025;-79
2021/08/06 03:05:46;;;;;;;0.30;0.00;;;19.70;99.90;;;;;;5037200;28;20094;-79
2021/08/06 03:08:12;;;;;;;1.08;0.10;;;18.70;99.90;;;;;;5037077;28;20493;-77
2021/08/06 03:10:38;;;;;;;0.93;0.20;;;18.50;99.90;;;;;;5018279;28;20021;-78
2021/08/06 03:13:03;;;;;;;0.85;0.28;;;18.50;99.90;;;;;;5035929;28;20479;-77
2021/08/06 03:15:29;;;;;;;1.45;0.10;;;18.50;99.90;;;;;;5037142;28;20079;-77
2021/08/06 03:17:54;;;;;;;2.15;0.13;;;18.50;99.90;;;;;;5017984;28;20024;-77
2021/08/06 03:20:25;;;;;;;0.30;0.10;;;18.50;99.90;;;;;;5018002;28;20526;-77
2021/08/06 03:22:52;;;;;;;0.40;0.20;;;18.50;99.90;;;;;;5036392;28;20037;-77
2021/08/06 03:25:18;;;;;;;0.77;0.20;;;18.50;99.90;;;;;;5035660;28;20535;-77
2021/08/06 03:27:44;;;;;;;0.40;0.10;;;18.50;99.90;;;;;;5035370;28;20368;-77
2021/08/06 03:30:12;;;;;;;2.72;0.10;;;18.60;99.90;;;;;;5018469;28;20497;-77
2021/08/06 03:32:38;;;;;;;2.20;0.10;;;18.50;99.90;;;;;;5017281;28;20479;-77
2021/08/06 03:35:05;;;;;;;2.50;0.17;;;18.50;99.90;;;;;;5017548;28;20022;-77
2021/08/06 03:37:31;;;;;;;1.13;0.10;;;18.50;99.90;;;;;;5017894;28;20099;-77
2021/08/06 03:39:57;;;;;;;0.50;0.10;;;18.50;99.90;;;;;;5017755;28;20022;-77
2021/08/06 03:42:22;;;;;;;0.88;0.20;;;18.50;99.90;;;;;;5017449;28;20486;-77
2021/08/06 03:44:48;;;;;;;1.05;0.10;;;18.50;99.90;;;;;;5035890;28;20030;-78
2021/08/06 03:47:14;;;;;;;1.30;0.10;;;18.40;99.90;;;;;;5034966;28;20057;-75
2021/08/06 03:49:40;;;;;;;1.23;0.20;;;18.50;99.90;;;;;;5034974;28;20017;-77
2021/08/06 03:52:06;;;;;;;1.65;0.17;;;18.40;99.90;;;;;;5035238;28;20075;-77
2021/08/06 03:54:32;;;;;;;0.30;0.05;;;18.40;99.90;;;;;;5035020;28;20056;-77
2021/08/06 03:56:57;;;;;;;0.45;0.05;;;18.60;99.90;;;;;;5034997;28;20028;-77
2021/08/06 03:59:23;;;;;;;2.05;0.10;;;18.40;99.90;;;;;;5034980;28;20021;-77
2021/08/06 04:01:48;;;;;;;0.25;0.10;;;18.40;99.90;;;;;;5035133;28;20025;-77
2021/08/06 04:04:14;;;;;;;0.30;0.05;;;18.40;99.90;;;;;;5016981;28;20462;-76
2021/08/06 04:06:39;;;;;;;2.50;0.17;;;18.40;99.90;;;;;;5034844;28;20025;-77
2021/08/06 04:09:05;;;;;;;0.55;0.10;;;18.30;99.90;;;;;;5034764;28;20026;-77
2021/08/06 04:11:31;;;;;;;0.50;0.10;;;18.40;99.90;;;;;;5034579;28;20130;-77
2021/08/06 04:13:56;;;;;;;2.25;0.10;;;18.30;99.90;;;;;;5034682;28;20578;-77
2021/08/06 04:16:22;;;;;;;0.40;0.08;;;18.30;99.90;;;;;;5034503;28;20052;-76
2021/08/06 04:18:48;;;;;;;1.20;0.10;;;18.40;99.90;;;;;;5034207;28;20055;-76
2021/08/06 04:21:13;;;;;;;0.82;0.20;;;18.30;99.90;;;;;;5016457;28;20013;-76
2021/08/06 04:23:39;;;;;;;0.30;0.00;;;18.20;99.90;;;;;;5016548;28;20027;-74
2021/08/06 04:26:04;;;;;;;0.93;0.05;;;18.20;99.90;;;;;;5034854;28;20025;-75
2021/08/06 04:28:30;;;;;;;0.47;0.10;;;18.20;99.90;;;;;;5034475;28;20071;-77
2021/08/06 04:31:00;;;;;;;0.60;0.10;;;18.20;99.90;;;;;;5016370;28;20112;-75
2021/08/06 04:33:26;;;;;;;0.35;0.00;;;18.20;99.90;;;;;;5034407;28;20039;-79
2021/08/06 04:35:52;;;;;;;1.20;0.00;;;18.10;99.90;;;;;;5034816;28;20017;-79
2021/08/06 04:38:17;;;;;;;1.85;0.10;;;18.10;99.90;;;;;;5034676;28;20100;-77
2021/08/06 04:40:43;;;;;;;2.05;0.03;;;18.10;99.90;;;;;;5034190;28;20025;-77
2021/08/06 04:43:08;;;;;;;0.45;0.00;;;18.00;99.90;;;;;;5033895;28;20022;-75
2021/08/06 04:45:34;;;;;;;0.10;0.00;;;18.00;99.90;;;;;;5016610;28;20532;-75
2021/08/06 04:48:03;;;;;;;0.20;0.10;;;18.00;99.90;;;;;;5016375;28;20418;-75
2021/08/06 04:50:29;;;;;;;0.80;0.10;;;18.00;99.90;;;;;;5033788;28;20071;-76
2021/08/06 04:52:56;;;;;;;0.85;0.32;;;18.00;99.90;;;;;;5033979;28;20051;-79
2021/08/06 04:55:23;;;;;;;0.88;0.13;;;18.10;99.90;;;;;;5034072;28;20022;-77
2021/08/06 04:57:48;;;;;;;2.00;0.10;;;18.00;99.90;;;;;;5016280;28;20368;-76
2021/08/06 05:00:14;;;;;;;0.32;0.00;;;18.00;99.90;;;;;;5015768;28;20020;-76
2021/08/06 05:02:40;;;;;;;0.10;0.00;;;18.10;99.90;;;;;;5033567;28;20112;-76
2021/08/06 05:05:06;;;;;;;1.15;0.05;;;18.10;99.90;;;;;;5033448;28;20057;-76
2021/08/06 05:07:32;;;;;;;0.95;0.10;;;18.10;99.90;;;;;;5015721;28;20026;-76
2021/08/06 05:09:58;;;;;;;1.05;0.10;;;18.10;99.90;;;;;;5033604;28;20501;-76
2021/08/06 05:12:23;;;;;;;0.90;0.00;;;18.00;99.90;;;;;;5033240;28;20033;-76
2021/08/06 05:14:49;;;;;;;0.30;0.10;;;18.00;99.90;;;;;;5048703;28;20479;-76
2021/08/06 05:17:15;;;;;;;0.22;0.00;;;18.10;99.90;;;;;;5033554;28;20463;-76
2021/08/06 05:19:40;;;;;;;0.73;0.00;;;18.10;99.90;;;;;;5033340;28;20041;-76
2021/08/06 05:22:06;;;;;;;2.25;0.00;;;18.10;99.90;;;;;;5033433;28;20494;-76
2021/08/06 05:24:32;;;;;;;1.08;0.10;;;18.20;99.90;;;;;;5015518;28;20075;-76
2021/08/06 05:26:57;;;;;;;0.43;0.00;;;18.30;99.90;;;;;;5033241;28;20029;-76
2021/08/06 05:29:23;;;;;;;2.22;0.10;;;18.30;99.90;;;;;;5033151;28;20026;-76
2021/08/06 05:31:49;;;;;;;0.30;0.10;;;18.40;99.90;;;;;;5015422;28;20029;-76
2021/08/06 05:34:14;;;;;;;1.08;0.28;;;18.50;99.90;;;;;;5033006;28;20037;-76
2021/08/06 05:36:40;;;;;;;0.28;0.00;;;18.40;99.90;;;;;;5033128;28;20021;-76
2021/08/06 05:39:06;;;;;;;1.65;0.47;;;18.50;99.90;;;;;;5015574;28;20120;-77
2021/08/06 05:41:31;;;;;;;1.95;0.20;;;18.50;99.90;;;;;;5015843;28;20061;-76
2021/08/06 05:43:57;;;;;;;1.58;0.15;;;18.60;99.90;;;;;;5015713;28;20494;-75
2021/08/06 05:46:22;;;;;;;2.10;0.20;;;18.60;99.90;;;;;;5033102;28;20057;-76
2021/08/06 05:48:48;;;;;;;1.58;0.30;;;18.60;99.90;;;;;;5015616;28;20072;-75
2021/08/06 05:51:13;;;;;;;3.58;0.82;;;18.60;99.90;;;;;;5015345;28;20028;-77
2021/08/06 05:53:39;;;;;;;0.68;0.20;;;18.60;99.90;;;;;;5033864;28;20455;-77
2021/08/06 05:56:05;;;;;;;0.63;0.10;;;18.60;99.90;;;;;;5033174;28;20053;-75
2021/08/06 05:58:30;;;;;;;0.30;0.10;;;18.70;99.90;;;;;;5036907;28;20072;-76
2021/08/06 06:00:56;;;;;;;0.40;0.20;;;18.60;99.90;;;;;;5037099;28;20104;-76
2021/08/06 06:03:22;;;;;;;0.88;0.13;;;18.50;99.90;;;;;;5037136;28;20033;-76
2021/08/06 06:05:47;;;;;;;1.50;0.20;;;18.50;99.90;;;;;;5037300;28;20025;-76
2021/08/06 06:08:13;;;;;;;1.17;0.10;;;18.50;99.90;;;;;;5037304;28;20048;-74
2021/08/06 06:10:39;;;;;;;1.45;0.47;;;18.50;99.90;;;;;;5018927;28;20108;-76
2021/08/06 06:13:05;;;;;;;1.40;0.20;;;18.60;99.90;;;;;;5036892;28;20383;-75
2021/08/06 06:15:30;;;;;;;0.40;0.32;;;18.60;99.90;;;;;;5037292;28;20022;-79
2021/08/06 06:17:56;;;;;;;0.30;0.20;;;18.70;99.90;;;;;;5038011;28;20045;-79
2021/08/06 06:20:23;;;;;;;2.22;0.10;;;18.60;99.90;;;;;;5037512;28;20010;-78
2021/08/06 06:22:49;;;;;;;0.10;0.03;;;18.60;99.90;;;;;;5019722;28;20065;-79
2021/08/06 06:25:15;;;;;;;0.30;0.00;;;18.60;99.90;;;;;;5037574;28;20563;-77
2021/08/06 06:27:47;;;;;;;0.85;0.20;;;18.60;99.90;;;;;;5036349;28;20033;-76
2021/08/06 06:30:12;;;;;;;2.28;0.85;;;18.60;99.90;;;;;;5018624;28;20040;-75
2021/08/06 06:32:38;;;;;;;2.20;0.20;;;18.70;99.90;;;;;;5037009;28;20395;-77
2021/08/06 06:35:04;;;;;;;1.33;0.20;;;18.70;99.90;;;;;;5036789;28;20473;-75
2021/08/06 06:37:29;;;;;;;0.50;0.10;;;18.70;99.90;;;;;;5036845;28;20455;-74
2021/08/06 06:39:55;;;;;;;0.75;0.50;;;18.70;99.90;;;;;;5036377;28;20025;-74
2021/08/06 06:42:20;;;;;;;0.45;0.20;;;18.60;99.90;;;;;;5036041;28;20079;-74
2021/08/06 06:44:46;;;;;;;1.15;0.50;;;18.60;99.90;;;;;;5018328;28;20144;-75
2021/08/06 06:47:11;;;;;;;1.65;0.22;;;18.60;99.90;;;;;;5035933;28;20018;-74
2021/08/06 06:49:37;;;;;;;4.43;0.93;;;18.60;99.90;;;;;;5036104;28;20020;-77
2021/08/06 06:52:03;;;;;;;3.13;0.47;;;18.70;99.90;;;;;;5018951;28;20028;-75
2021/08/06 06:54:28;;;;;;;2.67;0.65;;;18.80;99.90;;;;;;5035788;28;20108;-75
2021/08/06 06:56:54;;;;;;;0.63;0.35;;;18.80;99.90;;;;;;5035926;28;20494;-75
2021/08/06 06:59:19;;;;;;;1.45;0.38;;;18.90;99.90;;;;;;5036330;28;20124;-78
2021/08/06 07:01:45;;;;;;;2.30;0.52;;;19.00;99.90;;;;;;5036322;28;20025;-76
2021/08/06 07:04:10;;;;;;;0.43;0.25;;;19.00;99.90;;;;;;5035904;28;20483;-76
2021/08/06 07:06:36;;;;;;;1.27;0.52;;;19.00;99.90;;;;;;5035721;28;20056;-76
2021/08/06 07:09:02;;;;;;;2.60;0.30;;;19.00;99.90;;;;;;5016801;28;20030;-75
2021/08/06 07:11:27;;;;;;;2.45;0.65;;;18.90;99.90;;;;;;5035604;28;20135;-74
2021/08/06 07:13:53;;;;;;;2.80;0.68;;;18.90;99.90;;;;;;5035563;28;20483;-77
2021/08/06 07:16:18;;;;;;;2.53;0.43;;;18.90;99.90;;;;;;5018177;28;20018;-77
2021/08/06 07:18:44;;;;;;;3.03;0.65;;;18.90;99.90;;;;;;5035472;28;20029;-76
2021/08/06 07:21:12;;;;;;;3.85;0.63;;;19.10;99.90;;;;;;5017579;28;20022;-76
2021/08/06 07:23:37;;;;;;;2.30;0.43;;;19.30;99.90;;;;;;5035325;28;20489;-76
2021/08/06 07:26:03;;;;;;;3.35;0.63;;;19.40;99.90;;;;;;5035291;28;20057;-76
2021/08/06 07:28:29;;;;;;;0.95;0.30;;;19.30;99.90;;;;;;5035320;28;20487;-77
2021/08/06 07:30:54;;;;;;;0.55;0.30;;;19.30;99.90;;;;;;5035287;28;20026;-77
2021/08/06 07:33:20;;;;;;;4.60;1.10;;;19.30;99.90;;;;;;5035121;28;20045;-75
2021/08/06 07:35:45;;;;;;;3.47;0.30;;;19.30;99.90;;;;;;5035682;28;20059;-75
2021/08/06 07:38:11;;;;;;;2.97;0.93;;;19.40;99.90;;;;;;5035901;28;20049;-77
2021/08/06 07:40:37;;;;;;;2.45;0.77;;;19.70;99.90;;;;;;5035456;28;20021;-77
2021/08/06 07:43:02;;;;;;;0.82;0.50;;;19.80;99.90;;;;;;5035818;28;20029;-78
2021/08/06 07:45:28;;;;;;;1.83;0.50;;;20.00;99.90;;;;;;5035387;28;20028;-75
2021/08/06 07:47:54;;;;;;;0.75;0.43;;;20.00;99.90;;;;;;5017230;28;20029;-76
2021/08/06 07:50:20;;;;;;;4.65;0.43;;;19.90;99.90;;;;;;5017100;28;20402;-76
2021/08/06 07:52:46;;;;;;;4.00;0.30;;;19.70;99.90;;;;;;5016958;28;20060;-76
2021/08/06 07:55:13;;;;;;;2.72;0.25;;;19.70;99.90;;;;;;5034778;28;20514;-76
2021/08/06 07:57:39;;;;;;;3.67;0.32;;;19.70;99.90;;;;;;5034701;28;20028;-76
2021/08/06 08:00:06;;;;;;;2.50;0.22;;;19.90;99.90;;;;;;5016945;28;20068;-77
2021/08/06 08:02:32;;;;;;;1.60;0.20;;;20.10;99.90;;;;;;5034494;28;20120;-76
2021/08/06 08:04:57;;;;;;;2.72;0.70;;;20.20;99.90;;;;;;5034690;28;20080;-75
2021/08/06 08:07:23;;;;;;;4.65;0.43;;;20.30;99.90;;;;;;5016887;28;20509;-74
2021/08/06 08:09:48;;;;;;;3.03;0.35;;;20.30;99.90;;;;;;5034866;28;20032;-77
2021/08/06 08:12:14;;;;;;;2.03;0.40;;;20.20;99.90;;;;;;5017042;28;20216;-76
2021/08/06 08:14:40;;;;;;;1.80;0.20;;;20.20;99.90;;;;;;5034472;28;20053;-78
2021/08/06 08:17:06;;;;;;;2.67;0.20;;;20.20;99.90;;;;;;5035064;28;20025;-78
2021/08/06 08:19:32;;;;;;;1.25;0.10;;;20.30;99.90;;;;;;5016809;28;20028;-78
2021/08/06 08:21:57;;;;;;;1.83;0.65;;;20.50;99.90;;;;;;5034512;28;20067;-75
2021/08/06 08:24:23;;;;;;;2.92;0.10;;;20.50;99.90;;;;;;5016891;28;20438;-75
2021/08/06 08:26:48;;;;;;;1.58;0.30;;;20.30;99.90;;;;;;5034199;28;20022;-77
2021/08/06 08:29:14;;;;;;;1.55;0.28;;;20.20;99.90;;;;;;5034123;28;20479;-75
2021/08/06 08:31:39;;;;;;;2.78;0.57;;;20.30;99.90;;;;;;5034010;28;20479;-75
2021/08/06 08:34:05;;;;;;;3.20;0.43;;;20.60;99.90;;;;;;5034009;28;20025;-75
2021/08/06 08:36:31;;;;;;;1.55;0.35;;;21.00;99.90;;;;;;5016580;28;20045;-74
2021/08/06 08:38:56;;;;;;;0.82;0.10;;;21.20;99.90;;;;;;5033934;28;20505;-75
2021/08/06 08:41:23;;;;;;;3.28;0.10;;;21.20;99.90;;;;;;5016185;28;20503;-77
2021/08/06 08:43:49;;;;;;;1.05;0.55;;;21.20;99.90;;;;;;5064560;23;20416;-75
2021/08/06 08:46:16;;;;;;;0.20;0.10;;;21.30;99.90;;;;;;5089535;28;20020;-78
2021/08/06 08:48:42;;;;;;;3.17;0.10;;;21.50;99.90;;;;;;5090195;28;20059;-79
2021/08/06 08:51:08;;;;;;;1.45;0.10;;;21.70;99.90;;;;;;5074526;28;20107;-78
2021/08/06 08:53:34;;;;;;;1.75;0.03;;;21.80;99.90;;;;;;5073551;28;20526;-76
2021/08/06 08:55:59;;;;;;;1.20;0.00;;;22.00;99.90;;;;;;5073608;28;20017;-76
2021/08/06 08:58:25;;;;;;;1.42;0.00;;;21.90;99.90;;;;;;5073934;28;20016;-75
2021/08/06 09:00:51;;;;;;;1.17;0.30;;;21.80;99.90;;;;;;5072261;28;20021;-77
2021/08/06 09:03:41;;;;;;;1.27;0.10;;;21.60;99.90;;;;;;5073799;28;20024;-77
2021/08/06 09:06:08;;;;;;;0.32;0.00;;;21.50;99.90;;;;;;5073640;28;20021;-77
2021/08/06 09:08:35;;;;;;;2.83;0.10;;;21.50;99.90;;;;;;5074162;28;20031;-77
2021/08/06 09:11:01;;;;;;;1.45;0.10;;;21.50;99.90;;;;;;5073457;28;20098;-77
2021/08/06 09:13:27;;;;;;;0.50;0.00;;;21.40;99.90;;;;;;5073489;28;20056;-77
2021/08/06 09:16:00;;;;;;;3.40;0.00;;;21.30;99.90;;;;;;5073783;28;20536;-77
2021/08/06 09:18:27;;;;;;;2.80;0.00;;;21.10;99.90;;;;;;5073810;28;20024;-77
2021/08/06 09:20:59;;;;;;;0.77;0.10;;;20.90;99.90;;;;;;5073403;28;20025;-77
2021/08/06 09:23:47;;;;;;;1.60;0.05;;;20.80;99.90;;;;;;5072258;28;20120;-77
2021/08/06 09:26:41;;;;;;;1.38;0.20;;;20.70;99.90;;;;;;5073319;28;20032;-77
2021/08/06 09:29:12;;;;;;;1.65;0.17;;;20.70;99.90;;;;;;5072098;28;20024;-77
2021/08/06 09:31:48;;;;;;;1.77;0.88;;;20.80;99.90;;;;;;5071435;28;20028;-77
2021/08/06 09:34:18;;;;;;;1.38;0.00;;;20.80;99.90;;;;;;5073150;28;20058;-77
2021/08/06 09:37:07;;;;;;;1.85;0.00;;;20.80;99.90;;;;;;5073708;28;20040;-76
2021/08/06 09:39:39;;;;;;;1.13;0.00;;;20.80;99.90;;;;;;5071877;28;20025;-75
2021/08/06 09:42:14;;;;;;;2.97;0.00;;;20.70;99.90;;;;;;5073524;28;20047;-78
2021/08/06 09:44:40;;;;;;;1.42;0.50;;;20.70;99.90;;;;;;5073532;28;20033;-77
2021/08/06 09:47:21;;;;;;;2.90;0.35;;;20.80;99.90;;;;;;5073578;28;20024;-79
2021/08/06 09:49:53;;;;;;;2.17;0.25;;;20.90;99.90;;;;;;5071847;28;20025;-75
2021/08/06 09:52:43;;;;;;;2.40;0.10;;;21.30;99.90;;;;;;5073275;28;20024;-77
2021/08/06 09:55:11;;;;;;;1.00;0.00;;;21.50;99.90;;;;;;5073303;28;20097;-76
2021/08/06 09:57:43;;;;;;;1.52;0.00;;;21.60;99.90;;;;;;5073065;28;20013;-77
2021/08/06 10:00:14;;;;;;;0.90;0.55;;;21.80;99.90;;;;;;5073064;28;20025;-77
2021/08/06 10:02:41;;;;;;;5.82;0.30;;;21.90;99.90;;;;;;5072958;28;20035;-74
2021/08/06 10:05:08;;;;;;;1.27;0.00;;;22.00;99.90;;;;;;5071622;28;20021;-74
2021/08/06 10:07:45;;;;;;;0.20;0.00;;;21.80;99.90;;;;;;5071560;28;20028;-76
2021/08/06 10:10:20;;;;;;;2.75;0.13;;;21.50;99.90;;;;;;5071429;28;20066;-76
2021/08/06 10:12:47;;;;;;;2.17;0.17;;;21.30;99.90;;;;;;5072803;28;20052;-77
2021/08/06 10:15:14;;;;;;;1.75;0.00;;;21.10;99.90;;;;;;5072933;28;20103;-77
2021/08/06 10:17:40;;;;;;;1.15;0.10;;;21.20;99.90;;;;;;5071637;28;20032;-74
2021/08/06 10:20:09;;;;;;;0.20;0.10;;;21.20;99.90;;;;;;5072087;28;20440;-77
2021/08/06 10:22:34;;;;;;;0.45;0.08;;;21.20;99.90;;;;;;5072886;28;20025;-77
2021/08/06 10:25:05;;;;;;;1.95;0.00;;;21.00;99.90;;;;;;5072009;28;20478;-78
2021/08/06 10:27:32;;;;;;;0.50;0.00;;;21.20;99.90;;;;;;5073551;28;20020;-78
2021/08/06 10:30:08;;;;;;;0.65;0.20;;;21.30;99.90;;;;;;5073122;28;20028;-77
2021/08/06 10:32:36;;;;;;;3.60;0.00;;;21.30;99.90;;;;;;5071844;28;20039;-78
2021/08/06 10:35:16;;;;;;;5.55;0.30;;;21.30;99.90;;;;;;5072742;28;20386;-75
2021/08/06 10:38:03;;;;;;;0.10;0.00;;;21.50;99.90;;;;;;5072706;28;20021;-77
2021/08/06 10:40:31;;;;;;;0.45;0.10;;;21.80;99.90;;;;;;5071166;28;20025;-75
2021/08/06 10:43:17;;;;;;;0.20;0.03;;;21.90;99.90;;;;;;5073949;28;20490;-75
2021/08/06 10:45:49;;;;;;;1.30;0.00;;;22.00;99.90;;;;;;5075898;28;20502;-75
2021/08/06 10:48:30;;;;;;;0.20;0.00;;;22.30;99.90;;;;;;5075900;28;20062;-75
2021/08/06 10:51:14;;;;;;;0.57;0.00;;;22.00;99.90;;;;;;5076493;28;20029;-78
2021/08/06 10:53:43;;;;;;;1.35;0.00;;;22.10;99.90;;;;;;5076199;28;20025;-77
2021/08/06 10:56:17;;;;;;;0.10;0.00;;;22.20;99.90;;;;;;5076099;28;20066;-76
2021/08/06 10:58:49;;;;;;;0.50;0.00;;;22.50;99.90;;;;;;5075827;28;20013;-76
2021/08/06 11:01:33;;;;;;;0.20;0.00;;;22.70;99.90;;;;;;5075718;28;20029;-76
2021/08/06 11:04:12;;;;;;;1.17;0.10;;;23.10;99.90;;;;;;5075798;28;20481;-76
2021/08/06 11:06:48;;;;;;;1.02;0.00;;;23.40;99.90;;;;;;5075713;28;20103;-76
2021/08/06 11:09:26;;;;;;;0.22;0.10;;;23.40;99.90;;;;;;5075924;28;20075;-75
2021/08/06 11:12:12;;;;;;;2.53;0.32;;;23.30;99.90;;;;;;5075758;28;20478;-76
2021/08/06 11:14:40;;;;;;;1.67;0.10;;;23.60;99.90;;;;;;5075414;28;20069;-76
2021/08/06 11:17:34;;;;;;;0.43;0.00;;;24.10;99.90;;;;;;5074233;28;20021;-75
2021/08/06 11:20:10;;;;;;;0.28;0.00;;;24.30;98.00;;;;;;5064389;28;20024;-75
2021/08/06 11:22:42;;;;;;;0.10;0.10;;;23.60;98.50;;;;;;5075622;28;20012;-75
2021/08/06 11:25:16;;;;;;;1.55;0.10;;;23.20;99.70;;;;;;5075415;28;20508;-77
2021/08/06 11:27:45;;;;;;;0.30;0.10;;;22.60;99.90;;;;;;5074872;28;20542;-79
2021/08/06 11:30:14;;;;;;;3.08;0.00;;;22.00;99.90;;;;;;5076627;28;20058;-78
2021/08/06 11:32:54;;;;;;;1.65;0.00;;;21.40;99.90;;;;;;5075867;28;20024;-77
2021/08/06 11:35:25;;;;;;;2.70;0.10;;;20.20;99.90;;;;;;5074124;28;20017;-77
2021/08/06 11:37:57;;;;;;;1.67;0.00;;;19.40;99.90;;;;;;5075428;28;20016;-77
2021/08/06 11:40:25;;;;;;;1.38;0.08;;;18.90;99.90;;;;;;5075214;28;20386;-77
2021/08/06 11:42:50;;;;;;;3.63;0.57;;;18.60;99.90;;;;;;5075166;28;20025;-79
2021/08/06 11:45:22;;;;;;;0.45;0.00;;;18.50;99.90;;;;;;5075201;28;20031;-77
2021/08/06 11:47:51;;;;;;;0.20;0.00;;;18.50;99.90;;;;;;5073789;28;20032;-77
2021/08/06 11:50:20;;;;;;;2.40;0.00;;;18.70;99.90;;;;;;5075489;28;20474;-77
2021/08/06 11:52:50;;;;;;;1.48;0.10;;;19.10;99.90;;;;;;5069366;22;20545;-77
2021/08/06 11:55:27;;;;;;;1.50;0.00;;;19.70;99.90;;;;;;5033157;28;20044;-76
2021/08/06 11:57:54;;;;;;;0.77;0.10;;;20.30;99.90;;;;;;5034754;28;20022;-76
2021/08/06 12:00:28;;;;;;;0.47;0.00;;;20.60;99.90;;;;;;5034966;28;20518;-75
2021/08/06 12:03:02;;;;;;;1.30;0.03;;;20.80;99.90;;;;;;5035664;28;20029;-77
2021/08/06 12:05:27;;;;;;;0.55;0.00;;;20.90;99.90;;;;;;5063476;23;20532;-75
2021/08/06 12:07:53;;;;;;;0.45;0.10;;;20.90;99.90;;;;;;5095157;28;20024;-77
2021/08/06 12:10:24;;;;;;;1.00;0.10;;;20.80;99.90;;;;;;5076839;28;20504;-77
2021/08/06 12:12:50;;;;;;;7.57;0.82;;;21.00;99.90;;;;;;5076514;28;20067;-76
2021/08/06 12:15:26;;;;;;;0.45;0.10;;;21.10;99.90;;;;;;5095170;28;20016;-79
2021/08/06 12:18:19;;;;;;;1.00;0.08;;;21.10;99.90;;;;;;5076725;28;20028;-76
2021/08/06 12:20:52;;;;;;;1.00;0.20;;;21.20;99.90;;;;;;5076741;28;20047;-76
2021/08/06 12:23:19;;;;;;;1.75;0.10;;;21.00;99.90;;;;;;5094466;28;20039;-76
2021/08/06 12:26:07;;;;;;;0.50;0.10;;;20.80;99.90;;;;;;5094352;28;20020;-76
2021/08/06 12:28:34;;;;;;;1.25;0.17;;;20.60;99.90;;;;;;5095054;28;20028;-75
2021/08/06 12:31:16;;;;;;;0.85;0.10;;;20.50;99.90;;;;;;5076055;28;20031;-75
2021/08/06 12:33:44;;;;;;;0.40;0.10;;;20.30;99.90;;;;;;5094422;28;20081;-75
2021/08/06 12:36:18;;;;;;;0.95;0.10;;;20.00;99.90;;;;;;5094257;28;20482;-77
2021/08/06 12:38:45;;;;;;;0.57;0.00;;;19.90;99.90;;;;;;5076600;28;20028;-77
2021/08/06 12:41:28;;;;;;;0.82;0.47;;;19.80;99.90;;;;;;5076244;28;20110;-75
2021/08/06 12:44:12;;;;;;;0.10;0.00;;;19.40;99.90;;;;;;5094103;28;20107;-75
2021/08/06 12:46:38;;;;;;;0.43;0.00;;;19.20;99.90;;;;;;5094385;28;20103;-79
2021/08/06 12:49:05;;;;;;;0.10;0.10;;;18.90;99.90;;;;;;5076346;28;20449;-79
2021/08/06 12:51:32;;;;;;;0.20;0.00;;;18.80;99.90;;;;;;5094726;28;20381;-75
2021/08/06 12:53:58;;;;;;;0.08;0.00;;;18.80;99.90;;;;;;5093800;28;20024;-74